Time;durP1;ratioP1;P1;durP2;ratioP2;P2;SDS_P1;SDS_P2;PMS_P1;PMS_P2;Temp;Humidity;BMP_temperature;BMP_pressure;BME280_temperature;BME280_humidity;BME280_pressure;Samples;Min_cycle;Max_cycle;Signal;HPM_P1;HPM_P2
2022/01/23 00:01:25;;;;;;;55.03;21.33;;;;;;;6.84;100.00;103135.66;5068893;28;20130;-73
2022/01/23 00:03:52;;;;;;;55.33;22.95;;;;;;;6.84;100.00;103126.59;5066187;28;20044;-75
2022/01/23 00:06:18;;;;;;;49.92;21.10;;;;;;;6.78;100.00;103133.38;5062570;28;20424;-76
2022/01/23 00:08:45;;;;;;;52.17;24.00;;;;;;;6.78;100.00;103127.88;5067522;28;20492;-75
2022/01/23 00:11:12;;;;;;;59.58;24.10;;;;;;;6.74;100.00;103130.41;5066425;28;20061;-74
2022/01/23 00:19:12;;;;;;;55.15;24.20;;;;;;;6.68;100.00;103106.91;5062090;28;20587;-74
2022/01/23 00:21:40;;;;;;;53.72;21.13;;;;;;;6.62;100.00;103115.59;5064211;28;20060;-76
2022/01/23 00:32:07;;;;;;;50.38;24.00;;;;;;;6.56;100.00;103119.59;5064551;28;20170;-74
2022/01/23 00:34:34;;;;;;;55.28;23.80;;;;;;;6.60;100.00;103126.09;5069014;28;20044;-75
2022/01/23 00:37:00;;;;;;;57.90;24.75;;;;;;;6.58;100.00;103123.66;5062980;28;20076;-75
2022/01/23 00:39:27;;;;;;;62.30;26.00;;;;;;;6.62;100.00;103126.63;5068184;28;20471;-74
2022/01/23 00:41:53;;;;;;;52.67;22.85;;;;;;;6.60;100.00;103126.09;5079841;28;20056;-76
2022/01/23 00:44:20;;;;;;;53.92;22.63;;;;;;;6.55;100.00;103127.03;5065061;28;20080;-76
2022/01/23 00:46:50;;;;;;;52.22;21.77;;;;;;;6.54;100.00;103130.09;5066403;28;20051;-75
2022/01/23 00:49:26;;;;;;;53.35;22.10;;;;;;;6.53;100.00;103133.97;5066042;28;20048;-75
2022/01/23 00:51:54;;;;;;;55.83;22.77;;;;;;;6.49;100.00;103138.47;5063980;28;20430;-74
2022/01/23 00:54:21;;;;;;;50.28;21.20;;;;;;;6.51;100.00;103139.78;5058982;28;20045;-77
2022/01/23 00:56:48;;;;;;;36.58;15.82;;;;;;;6.45;100.00;103135.53;5066814;28;20124;-75
2022/01/23 00:59:14;;;;;;;30.98;11.85;;;;;;;6.40;100.00;103129.34;5067097;28;20111;-75
2022/01/23 01:01:41;;;;;;;32.53;13.63;;;;;;;6.40;100.00;103132.91;5061360;28;20055;-74
2022/01/23 01:04:08;;;;;;;34.65;15.30;;;;;;;6.37;100.00;103128.03;5065147;28;20055;-75
2022/01/23 01:06:35;;;;;;;47.08;22.85;;;;;;;6.42;100.00;103125.19;5067359;28;20159;-73
2022/01/23 01:09:05;;;;;;;49.92;21.30;;;;;;;6.44;100.00;103138.59;5062870;28;20131;-74
2022/01/23 01:30:57;;;;;;;49.53;22.15;;;;;;;6.45;100.00;103115.47;5069560;28;20701;-75
2022/01/23 01:36:00;;;;;;;52.17;22.65;;;;;;;6.48;100.00;103106.59;5069108;28;20798;-76
2022/01/23 01:38:27;;;;;;;44.47;19.90;;;;;;;6.46;100.00;103100.59;5068955;28;20044;-74
2022/01/23 01:40:54;;;;;;;49.92;22.08;;;;;;;6.47;100.00;103099.47;5074813;28;20140;-76
2022/01/23 01:43:20;;;;;;;47.60;19.75;;;;;;;6.42;100.00;103092.19;5067772;28;20084;-76
2022/01/23 01:45:47;;;;;;;46.13;19.42;;;;;;;6.37;100.00;103097.78;5067199;28;20079;-74
2022/01/23 01:48:17;;;;;;;52.97;20.38;;;;;;;6.37;100.00;103094.22;5069650;28;20050;-75
2022/01/23 01:50:46;;;;;;;48.05;20.17;;;;;;;6.35;100.00;103100.00;5064998;28;20556;-74
2022/01/23 01:53:14;;;;;;;53.53;22.55;;;;;;;6.35;100.00;103090.97;5068920;28;20066;-75
2022/01/23 01:55:45;;;;;;;55.03;22.70;;;;;;;6.38;100.00;103099.41;5069396;28;20048;-75
2022/01/23 01:58:34;;;;;;;51.20;21.92;;;;;;;6.39;100.00;103108.47;5068308;28;20048;-74
2022/01/23 02:01:05;;;;;;;45.70;19.83;;;;;;;6.40;100.00;103112.84;5058266;28;20805;-74
2022/01/23 02:08:19;;;;;;;51.53;21.05;;;;;;;6.42;100.00;103113.34;5067652;28;20147;-74
2022/01/23 02:09:11;;;;;;;50.40;22.63;;;;;;;6.48;100.00;103112.91;5069253;28;20058;-73
2022/01/23 02:25:26;;;;;;;;;;;;;;;;;;;;;
2022/01/23 02:55:08;;;;;;;;;;;;;;;;;;;;;
2022/01/23 02:57:50;;;;;;;66.43;27.08;;;;;;;6.29;100.00;103119.72;5061506;28;20055;-74
2022/01/23 03:00:19;;;;;;;60.83;25.70;;;;;;;6.28;100.00;103118.09;5067532;28;20080;-72
2022/01/23 03:02:50;;;;;;;58.50;26.15;;;;;;;6.27;100.00;103121.94;5064134;28;20455;-73
2022/01/23 03:08:04;;;;;;;64.20;26.40;;;;;;;6.25;100.00;103113.22;5060409;28;20055;-73
2022/01/23 03:10:44;;;;;;;63.30;25.98;;;;;;;6.27;100.00;103121.94;5075578;28;20066;-73
2022/01/23 03:16:13;;;;;;;70.97;26.63;;;;;;;6.29;100.00;103125.22;5068110;28;20059;-74
2022/01/23 03:24:27;;;;;;;71.82;27.00;;;;;;;6.37;100.00;103132.72;5066549;28;20136;-76
2022/01/23 03:29:26;;;;;;;68.95;26.48;;;;;;;6.34;100.00;103130.59;5065240;28;20072;-74
2022/01/23 03:34:26;;;;;;;60.25;25.10;;;;;;;6.34;100.00;103141.59;5071769;28;20052;-74
2022/01/23 03:36:55;;;;;;;67.18;28.02;;;;;;;6.29;100.00;103134.28;5054487;28;20059;-74
2022/01/23 03:39:23;;;;;;;61.25;25.83;;;;;;;6.30;100.00;103135.06;5072748;28;20070;-73
2022/01/23 03:41:50;;;;;;;62.92;26.10;;;;;;;6.27;100.00;103141.19;5067722;28;20162;-74
2022/01/23 03:44:17;;;;;;;59.47;24.20;;;;;;;6.25;100.00;103132.47;5067663;28;20212;-74
2022/01/23 03:49:31;;;;;;;65.25;27.92;;;;;;;6.21;100.00;103134.19;5068225;28;20135;-75
2022/01/23 03:52:05;;;;;;;65.57;26.35;;;;;;;6.26;100.00;103136.81;5067241;28;20066;-74
2022/01/23 03:54:33;;;;;;;57.55;25.65;;;;;;;6.24;100.00;103139.09;5067682;28;20087;-74
2022/01/23 03:57:01;;;;;;;61.80;27.13;;;;;;;6.22;100.00;103130.31;5066627;28;20119;-75
2022/01/23 03:59:29;;;;;;;65.20;26.33;;;;;;;6.25;100.00;103140.69;5067586;28;20094;-74
2022/01/23 04:01:56;;;;;;;67.35;25.80;;;;;;;6.24;100.00;103147.34;5066843;28;20052;-74
2022/01/23 04:04:39;;;;;;;64.90;27.67;;;;;;;6.27;100.00;103142.00;5070713;28;20083;-74
2022/01/23 04:07:11;;;;;;;68.75;29.40;;;;;;;6.27;100.00;103146.69;5074004;28;20080;-74
2022/01/23 04:09:38;;;;;;;65.13;26.15;;;;;;;6.26;100.00;103145.91;5071018;28;20639;-72
2022/01/23 04:12:07;;;;;;;60.60;24.50;;;;;;;6.22;100.00;103147.63;5066958;28;20556;-73
2022/01/23 04:14:35;;;;;;;61.33;25.77;;;;;;;6.23;100.00;103149.25;5063590;28;20053;-74
2022/01/23 05:00:22;;;;;;;65.45;27.77;;;;;;;6.13;100.00;103144.00;5066066;28;20067;-73
2022/01/23 05:05:15;;;;;;;63.03;26.45;;;;;;;6.15;100.00;103146.44;5065648;28;20057;-73
2022/01/23 05:07:45;;;;;;;69.72;27.33;;;;;;;6.15;100.00;103151.94;5054483;28;20394;-74
2022/01/23 05:10:12;;;;;;;67.97;26.98;;;;;;;6.16;100.00;103153.53;5067469;28;20063;-73
2022/01/23 05:12:39;;;;;;;70.28;27.05;;;;;;;6.16;100.00;103150.78;5067320;28;20068;-73
2022/01/23 05:15:07;;;;;;;61.70;26.70;;;;;;;6.17;100.00;103149.69;5064924;28;20590;-75
2022/01/23 05:17:37;;;;;;;67.00;26.55;;;;;;;6.14;100.00;103148.34;5056459;28;20044;-73
2022/01/23 05:20:06;;;;;;;62.90;27.48;;;;;;;6.14;100.00;103145.59;5067338;28;20052;-73
2022/01/23 05:22:41;;;;;;;65.43;26.17;;;;;;;6.15;100.00;103147.25;5064141;28;20044;-75
2022/01/23 05:27:35;;;;;;;64.18;27.50;;;;;;;6.17;100.00;103155.19;5066699;28;20110;-74
2022/01/23 05:30:01;;;;;;;71.38;27.00;;;;;;;6.18;100.00;103151.31;5062821;28;20106;-74
2022/01/23 05:32:35;;;;;;;66.55;26.25;;;;;;;6.17;100.00;103155.19;5064954;28;20090;-75
2022/01/23 05:35:02;;;;;;;64.72;26.63;;;;;;;6.16;100.00;103151.63;5065911;28;20082;-74
2022/01/23 05:37:29;;;;;;;67.80;25.25;;;;;;;6.14;100.00;103155.81;5059462;28;20566;-75
2022/01/23 05:39:55;;;;;;;65.50;26.15;;;;;;;6.15;100.00;103158.25;5069097;28;20135;-74
2022/01/23 05:42:22;;;;;;;72.65;29.45;;;;;;;6.18;100.00;103159.56;5065437;28;20053;-74
2022/01/23 05:44:49;;;;;;;72.68;27.98;;;;;;;6.20;100.00;103158.13;5065974;28;20056;-74
2022/01/23 05:47:15;;;;;;;76.43;28.35;;;;;;;6.18;100.00;103156.81;5066055;28;20139;-75
2022/01/23 05:49:42;;;;;;;65.80;27.92;;;;;;;6.21;100.00;103161.69;5066092;28;20064;-74
2022/01/23 05:52:09;;;;;;;68.72;27.65;;;;;;;6.23;100.00;103165.75;5066217;28;20083;-73
2022/01/23 05:54:35;;;;;;;76.28;31.15;;;;;;;6.24;100.00;103166.59;5066299;28;20083;-74
2022/01/23 05:57:03;;;;;;;77.55;28.80;;;;;;;6.28;100.00;103162.09;5059007;28;20051;-74
2022/01/23 05:59:29;;;;;;;68.15;28.05;;;;;;;6.26;100.00;103161.56;5065718;28;20133;-73
2022/01/23 06:01:57;;;;;;;64.18;26.23;;;;;;;6.26;100.00;103164.31;5065372;28;20131;-75
2022/01/23 06:04:25;;;;;;;58.40;21.88;;;;;;;6.16;100.00;103170.88;5070290;28;20048;-73
2022/01/23 06:06:53;;;;;;;71.50;29.13;;;;;;;6.22;100.00;103174.31;5069799;28;20049;-74
2022/01/23 06:09:21;;;;;;;73.28;29.10;;;;;;;6.25;100.00;103176.44;5068993;28;20770;-73
2022/01/23 06:11:48;;;;;;;74.03;29.13;;;;;;;6.23;100.00;103170.44;5064640;28;20501;-74
2022/01/23 06:14:14;;;;;;;72.93;28.13;;;;;;;6.25;100.00;103179.19;5074928;28;20080;-74
2022/01/23 06:16:41;;;;;;;76.88;30.10;;;;;;;6.25;100.00;103173.69;5065684;28;20064;-74
2022/01/23 06:19:08;;;;;;;78.20;29.20;;;;;;;6.22;100.00;103175.13;5070314;28;20053;-75
2022/01/23 06:21:34;;;;;;;80.38;31.05;;;;;;;6.27;100.00;103172.25;5069366;28;20049;-73
2022/01/23 06:24:15;;;;;;;80.55;29.83;;;;;;;6.24;100.00;103174.81;5064151;28;20512;-74
2022/01/23 06:26:47;;;;;;;68.88;29.38;;;;;;;6.27;100.00;103175.00;5070064;28;20067;-74
2022/01/23 06:29:16;;;;;;;80.20;31.75;;;;;;;6.27;100.00;103177.75;5069075;28;20131;-74
2022/01/23 06:31:48;;;;;;;87.88;32.00;;;;;;;6.30;100.00;103187.31;5058803;28;20564;-75
2022/01/23 06:34:17;;;;;;;71.40;27.45;;;;;;;6.27;100.00;103179.69;5062928;28;20131;-74
2022/01/23 06:36:45;;;;;;;76.78;29.83;;;;;;;6.25;100.00;103181.94;5067977;28;20497;-75
2022/01/23 06:39:13;;;;;;;75.05;30.02;;;;;;;6.23;100.00;103185.00;5072688;28;20054;-74
2022/01/23 06:41:43;;;;;;;79.43;30.73;;;;;;;6.20;100.00;103174.63;5069965;28;20048;-75
2022/01/23 06:44:10;;;;;;;81.78;30.83;;;;;;;6.27;100.00;103186.00;5066071;28;20079;-74
2022/01/23 06:46:41;;;;;;;77.70;29.80;;;;;;;6.26;100.00;103180.81;5066241;28;20071;-73
2022/01/23 06:49:09;;;;;;;82.45;31.83;;;;;;;6.29;100.00;103189.28;5069065;28;20595;-73
2022/01/23 06:51:37;;;;;;;78.80;31.05;;;;;;;6.27;100.00;103186.00;5063230;28;20169;-73
2022/01/23 06:54:03;;;;;;;75.90;28.63;;;;;;;6.24;100.00;103177.56;5060802;28;20049;-72
2022/01/23 06:56:30;;;;;;;87.28;32.88;;;;;;;6.26;100.00;103178.06;5067768;28;20135;-74
2022/01/23 06:58:56;;;;;;;78.05;29.73;;;;;;;6.27;100.00;103179.69;5067847;28;20076;-74
2022/01/23 07:01:23;;;;;;;79.13;31.65;;;;;;;6.29;100.00;103181.03;5065158;28;20505;-73
2022/01/23 07:03:50;;;;;;;89.90;32.22;;;;;;;6.26;100.00;103186.31;5068032;28;20060;-74
2022/01/23 07:06:17;;;;;;;84.90;31.92;;;;;;;6.28;100.00;103195.09;5063734;28;20048;-74
2022/01/23 07:09:03;;;;;;;81.65;31.30;;;;;;;6.33;100.00;103198.53;5061262;28;20059;-74
2022/01/23 07:11:30;;;;;;;78.97;30.25;;;;;;;6.31;100.00;103192.50;5067708;28;20098;-72
2022/01/23 07:13:56;;;;;;;76.07;29.92;;;;;;;6.28;100.00;103197.84;5068900;28;20694;-73
2022/01/23 07:16:23;;;;;;;74.72;28.45;;;;;;;6.26;100.00;103202.81;5067593;28;20053;-73
2022/01/23 07:18:49;;;;;;;78.40;31.60;;;;;;;6.28;100.00;103201.38;5069304;28;20098;-74
2022/01/23 07:21:16;;;;;;;80.68;31.15;;;;;;;6.31;100.00;103206.25;5060532;28;20080;-75
2022/01/23 07:23:49;;;;;;;77.47;30.17;;;;;;;6.31;100.00;103221.97;5067429;28;20160;-75
2022/01/23 07:26:20;;;;;;;74.53;29.90;;;;;;;6.28;100.00;103208.81;5067001;28;20080;-76
2022/01/23 07:28:47;;;;;;;83.57;29.92;;;;;;;6.28;100.00;103211.56;5057940;28;20087;-73
2022/01/23 07:31:31;;;;;;;86.90;31.30;;;;;;;6.28;100.00;103223.38;5065076;28;20044;-74
2022/01/23 07:34:00;;;;;;;80.80;28.98;;;;;;;6.31;100.00;103231.00;5068459;28;20052;-74
2022/01/23 07:36:27;;;;;;;80.63;32.47;;;;;;;6.36;100.00;103236.41;5067000;28;20048;-74
2022/01/23 07:38:54;;;;;;;75.30;29.92;;;;;;;6.33;100.00;103234.28;5068724;28;20171;-76
2022/01/23 07:41:21;;;;;;;70.57;27.75;;;;;;;6.27;100.00;103227.25;5069148;28;20058;-75
2022/01/23 07:43:48;;;;;;;74.05;28.15;;;;;;;6.24;100.00;103230.63;5068506;28;20148;-75
2022/01/23 07:46:15;;;;;;;82.70;31.95;;;;;;;6.28;100.00;103230.81;5065036;28;20555;-75
2022/01/23 07:48:42;;;;;;;81.57;31.15;;;;;;;6.26;100.00;103224.81;5067561;28;20147;-75
2022/01/23 07:51:08;;;;;;;84.10;32.17;;;;;;;6.32;100.00;103237.34;5067298;28;20053;-78
2022/01/23 07:53:35;;;;;;;85.68;33.65;;;;;;;6.31;100.00;103232.97;5069047;28;20083;-74
2022/01/23 07:56:03;;;;;;;79.63;31.40;;;;;;;6.30;100.00;103229.38;5066883;28;20055;-75
2022/01/23 07:58:29;;;;;;;83.38;33.17;;;;;;;6.32;100.00;103229.91;5068163;28;20455;-76
2022/01/23 08:00:56;;;;;;;80.82;31.30;;;;;;;6.34;100.00;103237.84;5063622;28;20070;-74
2022/01/23 08:03:23;;;;;;;89.68;33.08;;;;;;;6.33;100.00;103236.19;5068902;28;20076;-74
2022/01/23 08:05:50;;;;;;;88.10;33.10;;;;;;;6.36;100.00;103236.41;5060731;28;20148;-74
2022/01/23 08:08:16;;;;;;;82.95;34.13;;;;;;;6.37;100.00;103242.72;5052470;28;20908;-76
2022/01/23 08:10:43;;;;;;;87.97;33.03;;;;;;;6.35;100.00;103245.75;5062820;28;20513;-74
2022/01/23 08:13:09;;;;;;;79.20;30.20;;;;;;;6.31;100.00;103238.47;5067171;28;20076;-73
2022/01/23 08:15:36;;;;;;;88.40;31.17;;;;;;;6.33;100.00;103248.03;5064191;28;20067;-73
2022/01/23 08:18:05;;;;;;;96.60;33.53;;;;;;;6.34;100.00;103249.66;5064073;28;20056;-78
2022/01/23 08:20:33;;;;;;;97.28;34.53;;;;;;;6.38;100.00;103247.09;5062443;28;20060;-74
2022/01/23 08:23:02;;;;;;;83.78;33.63;;;;;;;6.40;100.00;103247.59;5066458;28;20044;-71
2022/01/23 08:25:30;;;;;;;85.60;34.25;;;;;;;6.43;100.00;103246.97;5068104;28;20070;-70
2022/01/23 08:27:57;;;;;;;90.72;33.17;;;;;;;6.46;100.00;103249.13;5061647;28;20136;-74
2022/01/23 08:30:25;;;;;;;82.88;31.63;;;;;;;6.48;100.00;103255.13;5058422;28;20454;-74
2022/01/23 08:32:52;;;;;;;90.10;33.45;;;;;;;6.48;100.00;103255.13;5077340;28;20127;-75
2022/01/23 08:35:20;;;;;;;90.35;34.28;;;;;;;6.54;100.00;103262.13;5063173;28;20058;-77
2022/01/23 08:37:47;;;;;;;84.15;34.80;;;;;;;6.57;100.00;103267.03;5065814;28;20463;-76
2022/01/23 08:40:21;;;;;;;79.72;28.90;;;;;;;6.55;100.00;103264.56;5074712;28;20060;-77
2022/01/23 08:42:52;;;;;;;71.03;27.70;;;;;;;6.47;100.00;103268.06;5064257;28;20055;-77
2022/01/23 08:45:19;;;;;;;80.32;31.67;;;;;;;6.49;100.00;103271.34;5069395;28;20056;-76
2022/01/23 08:47:47;;;;;;;90.65;32.88;;;;;;;6.55;100.00;103274.78;5063366;28;20511;-77
2022/01/23 08:50:14;;;;;;;83.43;30.83;;;;;;;6.60;100.00;103280.16;5068294;28;20558;-76
2022/01/23 08:52:41;;;;;;;95.13;34.15;;;;;;;6.59;100.00;103279.38;5064946;28;20048;-77
2022/01/23 08:55:08;;;;;;;90.72;32.03;;;;;;;6.62;100.00;103283.44;5068509;28;20125;-76
2022/01/23 08:57:35;;;;;;;89.57;33.60;;;;;;;6.64;100.00;103278.41;5064288;28;20139;-78
2022/01/23 09:00:22;;;;;;;83.35;31.85;;;;;;;6.65;100.00;103277.31;5056595;28;20583;-77
2022/01/23 09:02:49;;;;;;;86.57;31.42;;;;;;;6.62;100.00;103270.47;5064463;28;20142;-78
2022/01/23 09:05:18;;;;;;;75.85;28.45;;;;;;;6.58;100.00;103282.44;5062918;28;20045;-77
2022/01/23 09:07:44;;;;;;;85.50;31.10;;;;;;;6.66;100.00;103285.25;5064841;28;20048;-77
2022/01/23 09:10:11;;;;;;;85.25;32.60;;;;;;;6.72;100.00;103274.94;5067546;28;20051;-79
2022/01/23 09:15:05;;;;;;;82.55;31.75;;;;;;;6.79;100.00;103278.88;5064942;28;20068;-77
2022/01/23 09:17:33;;;;;;;84.00;31.23;;;;;;;6.84;100.00;103277.97;5066328;28;20139;-77
2022/01/23 09:20:00;;;;;;;92.22;33.72;;;;;;;6.89;100.00;103272.34;5067423;28;20053;-78
2022/01/23 09:22:29;;;;;;;79.63;31.80;;;;;;;6.92;100.00;103278.03;5072282;28;20056;-78
2022/01/23 09:24:58;;;;;;;87.05;34.25;;;;;;;6.96;100.00;103279.03;5066669;28;20063;-77
2022/01/23 09:27:25;;;;;;;80.40;32.03;;;;;;;6.96;100.00;103281.00;5068547;28;20060;-76
2022/01/23 09:29:54;;;;;;;69.72;27.55;;;;;;;7.00;100.00;103280.06;5063619;28;20497;-77
2022/01/23 09:32:22;;;;;;;76.72;29.63;;;;;;;7.01;100.00;103286.38;5067167;28;20075;-76
2022/01/23 09:34:51;;;;;;;80.15;28.63;;;;;;;7.02;100.00;103279.75;5070655;28;20363;-77
2022/01/23 09:37:19;;;;;;;76.30;30.08;;;;;;;7.04;100.00;103280.22;5067540;28;20144;-78
2022/01/23 09:39:50;;;;;;;70.88;29.10;;;;;;;7.02;100.00;103272.28;5060723;28;20830;-76
2022/01/23 09:42:23;;;;;;;76.38;28.85;;;;;;;7.06;100.00;103281.53;5062023;28;20056;-78
2022/01/23 09:45:04;;;;;;;69.53;25.38;;;;;;;7.15;100.00;103282.44;5066136;28;20442;-73
2022/01/23 09:47:32;;;;;;;73.47;25.95;;;;;;;7.19;100.00;103282.63;5062776;28;20056;-78
2022/01/23 09:50:01;;;;;;;65.30;25.52;;;;;;;7.22;100.00;103279.22;5063148;28;20123;-73
2022/01/23 09:52:29;;;;;;;62.45;25.60;;;;;;;7.27;100.00;103290.13;5064407;28;20675;-77
2022/01/23 09:55:00;;;;;;;59.00;23.92;;;;;;;7.27;100.00;103290.97;5062002;28;20052;-75
2022/01/23 09:57:30;;;;;;;68.63;26.70;;;;;;;7.31;100.00;103297.47;5063393;28;20113;-73
2022/01/23 09:59:58;;;;;;;67.78;26.15;;;;;;;7.40;100.00;103290.06;5063299;28;20094;-73
2022/01/23 10:02:26;;;;;;;63.75;28.58;;;;;;;7.43;100.00;103289.44;5059998;28;20128;-74
2022/01/23 10:04:59;;;;;;;60.08;23.80;;;;;;;7.45;100.00;103289.94;5061615;28;20094;-74
2022/01/23 10:07:27;;;;;;;58.03;24.70;;;;;;;7.39;100.00;103293.94;5064773;28;20452;-73
2022/01/23 10:10:06;;;;;;;60.22;24.73;;;;;;;7.47;100.00;103295.16;5065186;28;20132;-74
2022/01/23 10:12:34;;;;;;;61.78;25.55;;;;;;;7.50;100.00;103295.31;5060205;28;20531;-78
2022/01/23 10:15:01;;;;;;;53.42;22.70;;;;;;;7.57;100.00;103300.41;5062873;28;20078;-73
2022/01/23 10:17:27;;;;;;;55.15;23.65;;;;;;;7.60;100.00;103300.56;5062161;28;20115;-74
2022/01/23 10:19:54;;;;;;;57.83;23.98;;;;;;;7.65;100.00;103303.19;5080080;28;20055;-74
2022/01/23 10:22:21;;;;;;;55.08;21.75;;;;;;;7.66;100.00;103301.25;5062062;28;20148;-71
2022/01/23 10:24:47;;;;;;;52.58;22.83;;;;;;;7.65;100.00;103305.13;5063001;28;20097;-77
2022/01/23 10:27:14;;;;;;;57.08;23.40;;;;;;;7.66;100.00;103306.75;5062287;28;20135;-73
2022/01/23 10:29:45;;;;;;;58.33;23.40;;;;;;;7.64;100.00;103300.75;5062864;28;20052;-73
2022/01/23 10:32:21;;;;;;;53.47;21.77;;;;;;;7.64;100.00;103311.78;5064871;28;20142;-76
2022/01/23 10:34:58;;;;;;;56.88;23.30;;;;;;;7.66;100.00;103309.50;5072453;28;20052;-73
2022/01/23 10:37:33;;;;;;;53.72;23.17;;;;;;;7.65;100.00;103308.72;5058496;28;20049;-73
2022/01/23 10:40:23;;;;;;;59.95;25.15;;;;;;;7.64;100.00;103303.50;5069861;28;20091;-73
2022/01/23 10:48:27;;;;;;;59.22;25.30;;;;;;;7.59;100.00;103293.44;5067898;28;20076;-72
2022/01/23 10:51:12;;;;;;;;;;;;;;;7.55;100.00;103297.94;5061643;28;20091;-75
2022/01/23 10:53:58;;;;;;;61.72;24.35;;;;;;;7.60;100.00;103295.06;5065704;28;19980;-73
2022/01/23 10:56:31;;;;;;;57.53;22.88;;;;;;;7.62;100.00;103294.75;5068858;28;20048;-73
2022/01/23 10:59:10;;;;;;;62.35;26.92;;;;;;;7.66;100.00;103288.28;5062629;28;20127;-74
2022/01/23 11:02:00;;;;;;;55.78;21.50;;;;;;;7.64;100.00;103292.50;5065266;28;20048;-75
2022/01/23 11:04:27;;;;;;;58.67;23.70;;;;;;;7.66;100.00;103282.78;5068188;28;20044;-73
2022/01/23 11:07:03;;;;;;;53.85;21.75;;;;;;;7.70;100.00;103285.72;5068228;28;20072;-73
2022/01/23 11:09:31;;;;;;;64.63;26.02;;;;;;;7.72;100.00;103281.50;5067624;28;20134;-74
2022/01/23 11:12:03;;;;;;;62.58;24.50;;;;;;;7.74;100.00;103283.97;5061704;28;20068;-74
2022/01/23 11:17:47;;;;;;;57.20;23.17;;;;;;;7.60;100.00;103281.28;4986920;28;20096;-75
2022/01/23 11:20:30;;;;;;;59.83;25.50;;;;;;;7.62;100.00;103286.47;5056279;28;20131;-73
2022/01/23 11:23:22;;;;;;;57.10;24.98;;;;;;;7.75;100.00;103282.81;5083797;28;20083;-75
2022/01/23 11:25:51;;;;;;;66.35;27.83;;;;;;;7.84;100.00;103276.22;5054989;28;20109;-75
2022/01/23 11:28:27;;;;;;;62.17;24.45;;;;;;;7.83;100.00;103269.06;5069355;28;20060;-74
2022/01/23 11:30:55;;;;;;;54.15;23.00;;;;;;;7.81;100.00;103265.03;5068459;28;20052;-73
2022/01/23 11:33:22;;;;;;;62.15;25.50;;;;;;;7.86;100.00;103262.94;5066816;28;20135;-73
2022/01/23 11:35:49;;;;;;;56.33;24.67;;;;;;;7.91;100.00;103249.00;5066051;28;20083;-75
2022/01/23 11:38:19;;;;;;;56.35;23.80;;;;;;;7.95;100.00;103262.97;5066545;28;20108;-74
2022/01/23 11:54:51;;;;;;;42.38;21.55;;;;;;;8.55;100.00;103252.13;5066849;28;20080;-75
2022/01/23 11:57:33;;;;;;;47.17;20.63;;;;;;;8.58;100.00;103248.72;5067421;28;20060;-74
2022/01/23 12:00:05;;;;;;;33.78;14.90;;;;;;;8.38;100.00;103255.69;5058828;28;20060;-75
2022/01/23 12:02:37;;;;;;;50.13;21.50;;;;;;;8.42;100.00;103248.38;5064152;28;20123;-73
2022/01/23 12:05:10;;;;;;;47.83;20.90;;;;;;;8.51;100.00;103251.97;5065858;28;20532;-74
2022/01/23 12:07:39;;;;;;;32.95;14.38;;;;;;;8.39;100.00;103248.19;5055842;28;20552;-72
2022/01/23 12:10:09;;;;;;;48.80;21.55;;;;;;;8.44;100.00;103246.09;5066424;28;20135;-77
2022/01/23 12:18:17;;;;;;;55.05;22.42;;;;;;;8.47;100.00;103242.69;5068794;28;20446;-73
2022/01/23 12:20:46;;;;;;;50.25;22.67;;;;;;;8.46;100.00;103240.25;5058050;28;20117;-73
2022/01/23 12:23:14;;;;;;;42.55;19.98;;;;;;;8.51;100.00;103232.66;5066559;28;20040;-76
2022/01/23 12:25:45;;;;;;;48.15;21.60;;;;;;;8.60;100.00;103240.94;5063020;28;20128;-74
2022/01/23 12:28:21;;;;;;;50.40;21.70;;;;;;;8.50;100.00;103231.00;5082278;28;20125;-74
2022/01/23 12:31:06;;;;;;;47.15;21.63;;;;;;;8.57;100.00;103231.34;5065184;28;20055;-73
2022/01/23 12:33:40;;;;;;;50.65;22.42;;;;;;;8.68;100.00;103226.31;5066476;28;20477;-74
2022/01/23 12:36:23;;;;;;;46.10;20.58;;;;;;;8.68;100.00;103220.81;5067471;28;20167;-76
2022/01/23 12:38:54;;;;;;;44.47;20.13;;;;;;;8.78;100.00;103226.00;5067019;28;20449;-73
2022/01/23 12:41:26;;;;;;;42.53;20.15;;;;;;;8.81;100.00;103222.59;5066940;28;20071;-75
2022/01/23 12:44:00;;;;;;;38.60;18.27;;;;;;;8.83;100.00;103226.66;5067420;28;20095;-73
2022/01/23 12:46:26;;;;;;;40.70;16.38;;;;;;;8.79;100.00;103222.09;5070328;28;20127;-75
2022/01/23 12:48:53;;;;;;;30.63;13.30;;;;;;;8.57;100.00;103227.78;5067275;28;20131;-78
2022/01/23 12:51:19;;;;;;;39.33;18.58;;;;;;;8.55;100.00;103219.84;5067278;28;20076;-73
2022/01/23 12:53:46;;;;;;;40.78;16.92;;;;;;;8.55;100.00;103219.84;5066529;28;20102;-75
2022/01/23 12:56:42;;;;;;;38.90;17.00;;;;;;;8.49;100.00;103218.34;5074076;28;20056;-73
2022/01/23 12:59:14;;;;;;;36.22;17.45;;;;;;;8.47;100.00;103209.56;5062671;28;20053;-73
2022/01/23 13:01:45;;;;;;;21.80;10.18;;;;;;;8.36;100.00;103213.78;5062880;28;20127;-72
2022/01/23 13:04:12;;;;;;;33.38;13.70;;;;;;;8.31;100.00;103213.97;5068122;28;20060;-74
2022/01/23 13:06:47;;;;;;;37.08;17.75;;;;;;;8.22;100.00;103209.53;5069155;28;20564;-73
2022/01/23 13:31:55;;;;;;;51.42;20.88;;;;;;;8.21;100.00;103214.22;5052892;28;20052;-73
2022/01/23 13:34:26;;;;;;;45.05;20.42;;;;;;;8.23;100.00;103209.22;5069224;28;20052;-73
2022/01/23 13:36:55;;;;;;;47.15;20.38;;;;;;;8.17;100.00;103212.44;5060813;28;20175;-75
2022/01/23 13:39:30;;;;;;;49.05;23.02;;;;;;;8.22;100.00;103218.63;5074412;28;20531;-73
2022/01/23 13:42:42;;;;;;;53.88;22.52;;;;;;;8.24;100.00;103210.03;5066512;28;20193;-73
2022/01/23 14:02:15;;;;;;;53.42;23.27;;;;;;;8.07;100.00;103214.34;5063960;28;20088;-75
2022/01/23 14:04:45;;;;;;;49.50;22.30;;;;;;;8.07;100.00;103214.34;5066176;28;20052;-72
2022/01/23 14:07:17;;;;;;;51.58;23.10;;;;;;;8.07;100.00;103214.34;5068175;28;20473;-75
2022/01/23 14:09:44;;;;;;;54.00;22.98;;;;;;;8.13;100.00;103211.44;5061947;28;20498;-73
2022/01/23 14:12:13;;;;;;;44.60;21.48;;;;;;;8.12;100.00;103209.81;5065569;28;20110;-74
2022/01/23 14:14:54;;;;;;;52.50;22.90;;;;;;;8.07;100.00;103205.28;5058359;28;20074;-73
2022/01/23 14:17:28;;;;;;;49.35;21.90;;;;;;;8.02;100.00;103202.66;5066392;28;20117;-73
2022/01/23 14:20:00;;;;;;;51.88;23.88;;;;;;;8.06;100.00;103206.38;5061430;28;20078;-74
2022/01/23 14:22:35;;;;;;;55.75;25.25;;;;;;;8.09;100.00;103200.25;5075839;28;20072;-75
2022/01/23 14:25:17;;;;;;;52.22;23.52;;;;;;;8.09;100.00;103196.69;5070346;28;20107;-72
2022/01/23 14:27:48;;;;;;;43.70;21.77;;;;;;;8.15;100.00;103196.19;5068485;28;20048;-73
2022/01/23 14:30:20;;;;;;;50.85;24.00;;;;;;;8.15;100.00;103195.38;5062813;28;20068;-73
2022/01/23 14:32:51;;;;;;;48.33;21.63;;;;;;;8.16;100.00;103186.78;5065813;28;20080;-73
2022/01/23 14:35:24;;;;;;;54.97;24.85;;;;;;;8.18;100.00;103189.22;5078327;28;20058;-73
2022/01/23 14:37:52;;;;;;;53.25;24.83;;;;;;;8.18;100.00;103195.56;5068162;28;20102;-74
2022/01/23 14:40:24;;;;;;;51.90;23.65;;;;;;;8.18;100.00;103197.50;5071709;28;20044;-74
2022/01/23 14:43:09;;;;;;;52.78;24.10;;;;;;;8.17;100.00;103198.63;5069475;28;20076;-75
2022/01/23 14:45:42;;;;;;;51.65;23.38;;;;;;;8.20;100.00;103193.28;5066391;28;20091;-74
2022/01/23 14:48:10;;;;;;;51.50;23.88;;;;;;;8.18;100.00;103195.56;5063069;28;20218;-73
2022/01/23 14:50:40;;;;;;;51.83;22.92;;;;;;;8.18;100.00;103194.75;5066752;28;20071;-75
2022/01/23 14:53:13;;;;;;;49.40;23.73;;;;;;;8.16;100.00;103194.28;5061881;28;20059;-73
2022/01/23 14:55:43;;;;;;;54.28;23.10;;;;;;;8.13;100.00;103195.69;5067533;28;20083;-74
2022/01/23 14:58:12;;;;;;;50.15;22.75;;;;;;;8.16;100.00;103197.03;5070931;28;20064;-76
2022/01/23 15:00:40;;;;;;;52.70;23.90;;;;;;;8.14;100.00;103204.78;5067769;28;20040;-73
2022/01/23 15:03:08;;;;;;;48.10;21.75;;;;;;;8.16;100.00;103191.50;5073617;28;20071;-72